Time;durP1;ratioP1;P1;durP2;ratioP2;P2;SDS_P1;SDS_P2;PMS_P1;PMS_P2;Temp;Humidity;BMP_temperature;BMP_pressure;BME280_temperature;BME280_humidity;BME280_pressure;Samples;Min_cycle;Max_cycle;Signal;HPM_P1;HPM_P2
2022/06/27 00:00:16;;;;;;;2.47;2.27;;;;;25.30;100395.00;;;;2078315;28;20233;-50
2022/06/27 00:01:16;;;;;;;2.53;2.27;;;;;25.30;100385.00;;;;2078770;28;20280;-49
2022/06/27 00:02:16;;;;;;;2.43;2.10;;;;;25.40;100387.00;;;;2077610;28;20201;-50
2022/06/27 00:03:17;;;;;;;2.50;2.30;;;;;25.30;100383.00;;;;2074141;28;20230;-50
2022/06/27 00:04:17;;;;;;;2.67;2.30;;;;;25.30;100377.00;;;;2069890;28;20244;-50
2022/06/27 00:05:17;;;;;;;2.00;1.83;;;;;25.30;100372.00;;;;2070044;28;20571;-50
2022/06/27 00:06:20;;;;;;;2.40;2.20;;;;;25.30;100381.00;;;;2070303;28;21175;-49
2022/06/27 00:07:20;;;;;;;2.35;2.15;;;;;25.30;100388.00;;;;2069992;28;20214;-49
2022/06/27 00:08:21;;;;;;;2.07;1.97;;;;;25.30;100389.00;;;;2070128;28;20214;-50
2022/06/27 00:09:21;;;;;;;2.50;2.30;;;;;25.30;100385.00;;;;2070666;28;20221;-49
2022/06/27 00:10:22;;;;;;;2.53;2.00;;;;;25.30;100388.00;;;;2070449;28;20295;-50
2022/06/27 00:11:22;;;;;;;2.17;1.97;;;;;25.30;100405.00;;;;2070568;28;20218;-50
2022/06/27 00:12:22;;;;;;;2.20;2.00;;;;;25.30;100407.00;;;;2078338;28;20213;-50
2022/06/27 00:13:23;;;;;;;2.67;2.07;;;;;25.30;100416.00;;;;2076180;28;20216;-50
2022/06/27 00:14:23;;;;;;;2.77;2.17;;;;;25.30;100405.00;;;;2069818;28;20211;-50
2022/06/27 00:15:23;;;;;;;1.90;1.80;;;;;25.30;100413.00;;;;2070524;28;20207;-50
2022/06/27 00:16:24;;;;;;;4.03;2.27;;;;;25.30;100410.00;;;;2074723;28;20209;-50
2022/06/27 00:17:24;;;;;;;2.53;2.13;;;;;25.30;100408.00;;;;2077972;28;20205;-50
2022/06/27 00:18:25;;;;;;;2.30;2.10;;;;;25.30;100421.00;;;;2071411;28;20222;-50
2022/06/27 00:19:25;;;;;;;2.40;2.20;;;;;25.30;100426.00;;;;2078082;28;20374;-50
2022/06/27 00:20:25;;;;;;;2.30;2.10;;;;;25.30;100414.00;;;;2078120;28;20239;-50
2022/06/27 00:21:26;;;;;;;2.30;1.97;;;;;25.30;100425.00;;;;2078486;28;20256;-50
2022/06/27 00:22:27;;;;;;;1.97;1.77;;;;;25.30;100427.00;;;;2078723;28;20213;-50
2022/06/27 00:23:27;;;;;;;2.50;2.30;;;;;25.30;100422.00;;;;2078371;28;20222;-50
2022/06/27 00:24:27;;;;;;;2.60;2.00;;;;;25.30;100427.00;;;;2077385;28;20713;-50
2022/06/27 00:25:28;;;;;;;2.20;2.00;;;;;25.30;100416.00;;;;2077945;28;20683;-50
2022/06/27 00:26:28;;;;;;;2.43;2.20;;;;;25.00;100422.00;;;;2078580;28;20213;-50
2022/06/27 00:27:29;;;;;;;2.37;2.00;;;;;25.30;100417.00;;;;2078005;28;20244;-50
2022/06/27 00:28:29;;;;;;;2.33;2.13;;;;;25.30;100420.00;;;;2078477;28;20244;-49
2022/06/27 00:29:29;;;;;;;2.80;2.00;;;;;25.30;100420.00;;;;2078722;28;20210;-49
2022/06/27 00:30:30;;;;;;;2.30;2.20;;;;;25.30;100429.00;;;;2078412;28;20217;-49
2022/06/27 00:31:30;;;;;;;2.40;2.20;;;;;25.30;100436.00;;;;2078669;28;20244;-49
2022/06/27 00:32:30;;;;;;;2.50;2.30;;;;;25.30;100441.00;;;;2078078;28;20222;-49
2022/06/27 00:33:31;;;;;;;2.40;2.03;;;;;25.30;100441.00;;;;2078358;28;20213;-49
2022/06/27 00:34:31;;;;;;;2.37;2.17;;;;;25.30;100432.00;;;;2078506;28;20256;-49
2022/06/27 00:35:32;;;;;;;2.10;1.90;;;;;25.30;100437.00;;;;2078378;28;20218;-49
2022/06/27 00:36:32;;;;;;;3.10;2.27;;;;;25.30;100438.00;;;;2078512;28;20267;-49
2022/06/27 00:37:33;;;;;;;2.40;2.10;;;;;25.30;100432.00;;;;2077012;28;20463;-49
2022/06/27 00:38:33;;;;;;;2.13;1.93;;;;;25.30;100436.00;;;;2077639;28;20224;-49
2022/06/27 00:39:33;;;;;;;2.20;2.00;;;;;25.30;100431.00;;;;2078498;28;20214;-49
2022/06/27 00:40:34;;;;;;;2.37;2.17;;;;;25.30;100429.00;;;;2075558;28;20716;-49
2022/06/27 00:41:34;;;;;;;1.97;1.77;;;;;25.30;100432.00;;;;2070438;28;20582;-50
2022/06/27 00:42:35;;;;;;;2.63;2.33;;;;;25.30;100440.00;;;;2070402;28;20550;-50
2022/06/27 00:43:35;;;;;;;3.30;2.57;;;;;25.30;100432.00;;;;2069662;28;20218;-49
2022/06/27 00:44:39;;;;;;;2.10;1.90;;;;;25.30;100423.00;;;;2068948;28;20245;-49
2022/06/27 00:45:40;;;;;;;2.15;1.95;;;;;25.30;100424.00;;;;2069509;28;20775;-49
2022/06/27 00:46:40;;;;;;;2.87;2.40;;;;;25.30;100428.00;;;;2070388;28;20225;-49
2022/06/27 00:47:40;;;;;;;2.13;1.93;;;;;25.20;100418.00;;;;2069460;28;20786;-49
2022/06/27 00:48:41;;;;;;;2.50;2.30;;;;;25.30;100422.00;;;;2071486;28;20234;-50
2022/06/27 00:49:41;;;;;;;3.03;1.80;;;;;25.30;100423.00;;;;2071847;28;20387;-49
2022/06/27 00:50:41;;;;;;;2.10;1.90;;;;;25.30;100418.00;;;;2071775;28;20288;-49
2022/06/27 00:51:42;;;;;;;3.43;1.90;;;;;25.30;100422.00;;;;2071306;28;20211;-50
2022/06/27 00:52:42;;;;;;;2.67;2.40;;;;;25.30;100413.00;;;;2071063;28;20717;-49
2022/06/27 00:53:42;;;;;;;2.20;2.00;;;;;25.30;100411.00;;;;2067148;28;20221;-49
2022/06/27 00:54:44;;;;;;;2.47;2.27;;;;;25.30;100409.00;;;;2070893;28;20761;-50
2022/06/27 00:55:45;;;;;;;2.40;2.20;;;;;25.30;100408.00;;;;2072093;28;20300;-50
2022/06/27 00:56:45;;;;;;;2.43;2.23;;;;;25.30;100404.00;;;;2070646;28;20214;-50
2022/06/27 00:57:45;;;;;;;2.97;2.20;;;;;25.30;100399.00;;;;2070371;28;20221;-49
2022/06/27 00:58:46;;;;;;;2.97;2.40;;;;;25.30;100414.00;;;;2071275;28;20228;-49
2022/06/27 00:59:46;;;;;;;2.80;2.30;;;;;25.30;100416.00;;;;2069541;28;20222;-49
2022/06/27 01:00:47;;;;;;;2.07;1.93;;;;;25.30;100407.00;;;;2070947;28;20225;-50
2022/06/27 01:01:47;;;;;;;3.07;2.17;;;;;25.30;100402.00;;;;2071946;28;20218;-50
2022/06/27 01:02:47;;;;;;;2.93;2.23;;;;;25.30;100403.00;;;;2071795;28;20543;-49
2022/06/27 01:03:48;;;;;;;2.07;1.97;;;;;25.30;100402.00;;;;2071308;28;20230;-53
2022/06/27 01:04:48;;;;;;;2.40;2.07;;;;;25.30;100400.00;;;;2071024;28;20225;-54
2022/06/27 01:05:51;;;;;;;2.30;2.10;;;;;25.30;100401.00;;;;2071572;28;20214;-51
2022/06/27 01:06:52;;;;;;;2.10;1.90;;;;;25.30;100404.00;;;;2062224;28;20215;-50
2022/06/27 01:07:52;;;;;;;2.43;2.10;;;;;25.30;100401.00;;;;2062555;28;20215;-49
2022/06/27 01:08:52;;;;;;;2.60;2.40;;;;;25.30;100402.00;;;;2070796;28;20218;-49
2022/06/27 01:09:53;;;;;;;2.27;2.07;;;;;25.30;100404.00;;;;2070885;28;20214;-49
2022/06/27 01:10:53;;;;;;;2.60;2.40;;;;;25.30;100414.00;;;;2070861;28;20210;-50
2022/06/27 01:11:54;;;;;;;2.30;2.10;;;;;25.30;100399.00;;;;2071235;28;20248;-50
2022/06/27 01:12:55;;;;;;;2.90;2.10;;;;;25.30;100405.00;;;;2071944;28;20287;-50
2022/06/27 01:13:55;;;;;;;2.13;1.92;;;;;25.30;100403.00;;;;2063066;28;20620;-49
2022/06/27 01:14:55;;;;;;;2.50;2.30;;;;;25.30;100399.00;;;;2062926;28;20274;-49
2022/06/27 01:15:56;;;;;;;2.00;1.90;;;;;25.30;100399.00;;;;2078955;28;20725;-50
2022/06/27 01:16:57;;;;;;;3.13;2.10;;;;;25.30;100402.00;;;;2063143;28;20293;-49
2022/06/27 01:17:57;;;;;;;2.60;2.23;;;;;25.30;100398.00;;;;2062514;28;20489;-49
2022/06/27 01:18:58;;;;;;;2.40;2.20;;;;;25.30;100397.00;;;;2070821;28;20453;-49
2022/06/27 01:19:58;;;;;;;2.17;2.03;;;;;25.30;100395.00;;;;2067799;28;20225;-49
2022/06/27 01:20:58;;;;;;;1.73;1.63;;;;;25.30;100400.00;;;;2079024;28;20214;-49
2022/06/27 01:21:59;;;;;;;2.03;1.83;;;;;25.30;100398.00;;;;2075215;28;20279;-49
2022/06/27 01:23:00;;;;;;;2.60;2.33;;;;;25.30;100399.00;;;;2078992;28;20217;-49
2022/06/27 01:24:00;;;;;;;3.00;2.10;;;;;25.30;100396.00;;;;2079718;28;20566;-49
2022/06/27 01:25:00;;;;;;;3.07;2.57;;;;;25.30;100393.00;;;;2079081;28;20753;-49
2022/06/27 01:26:01;;;;;;;2.13;2.03;;;;;25.30;100390.00;;;;2078181;28;20822;-50
2022/06/27 01:27:02;;;;;;;2.10;1.90;;;;;25.20;100394.00;;;;2079477;28;20217;-49
2022/06/27 01:28:05;;;;;;;4.37;1.73;;;;;25.20;100390.00;;;;2075761;28;20210;-49
2022/06/27 01:29:06;;;;;;;2.10;1.92;;;;;25.30;100391.00;;;;2079195;28;20543;-50
2022/06/27 01:30:07;;;;;;;1.90;1.70;;;;;25.20;100386.00;;;;2070674;28;20207;-49
2022/06/27 01:31:10;;;;;;;2.60;2.40;;;;;25.20;100378.00;;;;2079043;28;20681;-50
2022/06/27 01:32:11;;;;;;;2.40;2.20;;;;;25.20;100380.00;;;;2070771;28;20291;-49
2022/06/27 01:33:11;;;;;;;2.60;2.40;;;;;25.20;100383.00;;;;2069411;28;21017;-49
2022/06/27 01:34:11;;;;;;;2.30;1.97;;;;;25.30;100380.00;;;;2079589;28;20568;-50
2022/06/27 01:35:12;;;;;;;2.83;2.40;;;;;25.20;100393.00;;;;2079764;28;20641;-50
2022/06/27 01:37:31;;;;;;;2.20;2.00;;;;;25.20;100390.00;;;;2079082;28;20209;-49
2022/06/27 01:38:31;;;;;;;2.90;1.80;;;;;25.20;100394.00;;;;2079617;28;20209;-49
2022/06/27 01:39:32;;;;;;;2.27;2.07;;;;;25.20;100401.00;;;;2079165;28;20213;-50
2022/06/27 01:40:33;;;;;;;2.33;2.13;;;;;25.20;100403.00;;;;2078663;28;20206;-48
2022/06/27 01:41:33;;;;;;;2.60;2.33;;;;;25.20;100343.00;;;;2079601;28;20205;-50
2022/06/27 01:42:33;;;;;;;2.60;2.30;;;;;25.20;100403.00;;;;2079638;28;20580;-49
2022/06/27 01:43:34;;;;;;;2.87;2.67;;;;;25.20;100404.00;;;;2077126;28;20725;-49
2022/06/27 01:44:34;;;;;;;2.27;2.07;;;;;25.20;100402.00;;;;2070962;28;20225;-49
2022/06/27 01:45:35;;;;;;;2.57;2.37;;;;;25.20;100395.00;;;;2070351;28;20214;-50
2022/06/27 01:46:57;;;;;;;2.50;2.30;;;;;25.20;100390.00;;;;2071576;28;20475;-49
2022/06/27 01:47:57;;;;;;;2.95;2.20;;;;;25.20;100391.00;;;;2073579;28;20258;-49
2022/06/27 01:48:57;;;;;;;3.67;2.30;;;;;25.20;100386.00;;;;2077942;28;20776;-49
2022/06/27 01:49:58;;;;;;;1.87;1.77;;;;;25.20;100391.00;;;;2079609;28;20678;-50
2022/06/27 01:50:58;;;;;;;2.43;2.23;;;;;25.20;100378.00;;;;2079304;28;20684;-49
2022/06/27 01:52:00;;;;;;;2.80;2.30;;;;;25.20;100388.00;;;;2070962;28;20747;-49
2022/06/27 01:53:01;;;;;;;2.30;2.08;;;;;25.20;100377.00;;;;2071117;28;20326;-49
2022/06/27 01:54:01;;;;;;;2.77;2.50;;;;;25.20;100375.00;;;;2078632;28;20206;-49
2022/06/27 01:55:02;;;;;;;2.97;2.67;;;;;25.20;100385.00;;;;2067279;28;20298;-50
2022/06/27 01:56:02;;;;;;;2.00;1.70;;;;;25.20;100383.00;;;;2072484;28;20237;-49
2022/06/27 01:57:04;;;;;;;2.40;2.20;;;;;25.20;100385.00;;;;2079003;28;20209;-50
2022/06/27 01:58:04;;;;;;;3.55;2.70;;;;;25.20;100387.00;;;;2078751;28;20213;-50
2022/06/27 01:59:05;;;;;;;3.37;2.40;;;;;25.20;100393.00;;;;2075115;28;20253;-50
2022/06/27 02:00:06;;;;;;;2.30;2.10;;;;;25.20;100387.00;;;;2070273;28;20218;-50
2022/06/27 02:01:07;;;;;;;2.40;2.20;;;;;25.20;100392.00;;;;2070773;28;20341;-50
2022/06/27 02:02:07;;;;;;;2.67;2.20;;;;;25.20;100397.00;;;;2070828;28;20222;-50
2022/06/27 02:03:07;;;;;;;2.33;2.13;;;;;25.20;100399.00;;;;2071101;28;21011;-50
2022/06/27 02:04:08;;;;;;;2.93;2.27;;;;;25.20;100402.00;;;;2071535;28;21053;-49
2022/06/27 02:05:08;;;;;;;2.23;2.03;;;;;25.20;100394.00;;;;2073551;28;20789;-50
2022/06/27 02:06:09;;;;;;;2.73;2.53;;;;;25.20;100383.00;;;;2076210;28;20309;-49
2022/06/27 02:07:09;;;;;;;2.57;2.37;;;;;25.20;100391.00;;;;2070741;28;20654;-49
2022/06/27 02:08:09;;;;;;;2.40;2.20;;;;;25.20;100383.00;;;;2070432;28;20603;-50
2022/06/27 02:09:11;;;;;;;4.23;2.40;;;;;25.20;100378.00;;;;2064771;28;20254;-49
2022/06/27 02:10:12;;;;;;;2.60;2.40;;;;;25.20;100370.00;;;;2070267;28;20277;-49
2022/06/27 02:11:13;;;;;;;2.87;1.90;;;;;25.20;100369.00;;;;2079370;28;20209;-49
2022/06/27 02:12:21;;;;;;;2.67;2.47;;;;;25.20;100362.00;;;;2078600;28;20209;-49
2022/06/27 02:13:21;;;;;;;2.50;2.30;;;;;25.20;100366.00;;;;2071211;28;20221;-50
2022/06/27 02:14:22;;;;;;;3.87;2.20;;;;;25.20;100359.00;;;;2062361;28;20846;-50
2022/06/27 02:15:22;;;;;;;2.50;2.30;;;;;25.20;100364.00;;;;2060927;28;20299;-49
2022/06/27 02:16:23;;;;;;;2.67;2.47;;;;;25.20;100361.00;;;;2070871;28;20289;-49
2022/06/27 02:17:23;;;;;;;2.23;2.03;;;;;25.20;100363.00;;;;2070909;28;20264;-49
2022/06/27 02:18:24;;;;;;;2.50;2.30;;;;;25.20;100352.00;;;;2078952;28;20239;-49
2022/06/27 02:19:24;;;;;;;2.60;2.40;;;;;25.20;100354.00;;;;2070728;28;20293;-49
2022/06/27 02:20:24;;;;;;;2.60;2.40;;;;;25.20;100349.00;;;;2064608;28;20250;-50
2022/06/27 02:21:26;;;;;;;2.67;2.30;;;;;25.20;100343.00;;;;2071291;28;20218;-50
2022/06/27 02:22:28;;;;;;;2.50;2.30;;;;;25.20;100337.00;;;;2070929;28;20265;-50
2022/06/27 02:23:28;;;;;;;2.50;2.30;;;;;25.20;100323.00;;;;2070038;28;20417;-51
2022/06/27 02:24:28;;;;;;;3.27;2.47;;;;;25.00;100324.00;;;;2070934;28;20229;-50
2022/06/27 02:25:29;;;;;;;2.60;2.40;;;;;25.20;100330.00;;;;2071058;28;20223;-50
2022/06/27 02:26:29;;;;;;;2.57;2.37;;;;;25.20;100322.00;;;;2073933;28;20209;-50
2022/06/27 02:27:30;;;;;;;2.53;2.33;;;;;25.20;100332.00;;;;2078408;28;20661;-50
2022/06/27 02:28:30;;;;;;;2.97;2.67;;;;;25.20;100323.00;;;;2078874;28;20228;-50
2022/06/27 02:29:30;;;;;;;3.10;2.73;;;;;25.20;100330.00;;;;2078546;28;20244;-50
2022/06/27 02:30:31;;;;;;;2.50;2.30;;;;;25.20;100334.00;;;;2077795;28;20213;-50
2022/06/27 02:31:31;;;;;;;2.83;2.40;;;;;25.20;100332.00;;;;2079233;28;20201;-50
2022/06/27 02:32:32;;;;;;;3.00;2.20;;;;;25.20;100326.00;;;;2079439;28;20217;-50
2022/06/27 02:33:40;;;;;;;2.83;2.13;;;;;25.20;100168.00;;;;2072811;28;20682;-49
2022/06/27 02:34:40;;;;;;;3.35;2.47;;;;;25.20;100335.00;;;;2070583;28;20218;-49
2022/06/27 02:35:40;;;;;;;2.73;2.53;;;;;25.20;100336.00;;;;2062271;28;22387;-49
2022/06/27 02:36:41;;;;;;;2.80;2.60;;;;;25.20;100323.00;;;;2062330;28;20308;-50
2022/06/27 02:37:41;;;;;;;3.00;2.70;;;;;25.20;100316.00;;;;2078092;28;20229;-50
2022/06/27 02:38:42;;;;;;;2.60;2.40;;;;;25.20;100330.00;;;;2054112;28;20301;-49
2022/06/27 02:39:43;;;;;;;4.70;2.45;;;;;25.20;100331.00;;;;2054364;28;20212;-49
2022/06/27 02:40:44;;;;;;;2.40;2.20;;;;;25.20;100330.00;;;;2070110;28;20217;-50
2022/06/27 02:41:45;;;;;;;2.70;2.50;;;;;25.00;100319.00;;;;2061752;28;20261;-49
2022/06/27 02:42:45;;;;;;;4.13;2.60;;;;;25.20;100332.00;;;;2050646;28;20497;-50
2022/06/27 02:43:50;;;;;;;2.93;2.73;;;;;25.20;100322.00;;;;2046579;28;21205;-50
2022/06/27 02:44:50;;;;;;;3.53;2.30;;;;;25.20;100320.00;;;;2060447;28;20222;-50
2022/06/27 02:45:50;;;;;;;2.70;2.50;;;;;25.20;100310.00;;;;2069913;28;20222;-50
2022/06/27 02:46:51;;;;;;;2.60;2.30;;;;;25.20;100332.00;;;;2070073;28;20229;-50
2022/06/27 02:47:51;;;;;;;5.30;3.20;;;;;25.20;100333.00;;;;2069834;28;20288;-50
2022/06/27 02:48:52;;;;;;;3.07;2.83;;;;;25.20;100331.00;;;;2070314;28;20215;-50
2022/06/27 02:49:52;;;;;;;3.37;3.07;;;;;25.20;100333.00;;;;2070230;28;20665;-50
2022/06/27 02:50:56;;;;;;;2.83;2.53;;;;;25.20;100331.00;;;;2070222;28;20237;-50
2022/06/27 02:52:08;;;;;;;3.08;2.58;;;;;25.20;100330.00;;;;2062670;28;20277;-50
2022/06/27 02:53:10;;;;;;;2.65;2.45;;;;;25.20;100326.00;;;;2063280;28;20230;-50
2022/06/27 02:54:15;;;;;;;2.60;2.40;;;;;25.20;100330.00;;;;2069722;28;20220;-50
2022/06/27 02:55:17;;;;;;;3.03;2.72;;;;;25.20;100323.00;;;;2070289;28;20693;-50
2022/06/27 02:56:21;;;;;;;2.38;2.10;;;;;25.20;100315.00;;;;2070289;28;20214;-50
2022/06/27 02:57:32;;;;;;;3.03;2.72;;;;;25.20;100298.00;;;;2070645;28;20218;-50
2022/06/27 02:58:41;;;;;;;3.10;2.60;;;;;25.20;100315.00;;;;2069908;28;20297;-51
2022/06/27 02:59:42;;;;;;;3.40;3.10;;;;;25.20;100303.00;;;;2067514;28;20214;-50
2022/06/27 03:00:42;;;;;;;3.70;2.90;;;;;25.20;100301.00;;;;2078154;28;20521;-50
2022/06/27 03:01:42;;;;;;;3.70;2.83;;;;;25.20;100303.00;;;;2065448;28;20211;-49
2022/06/27 03:02:43;;;;;;;2.73;2.53;;;;;25.20;100304.00;;;;2062146;28;20238;-50
2022/06/27 03:03:43;;;;;;;3.03;2.73;;;;;25.20;100304.00;;;;2074773;28;20581;-49
2022/06/27 03:04:44;;;;;;;3.00;2.53;;;;;25.20;100303.00;;;;2069306;28;20644;-50
2022/06/27 03:06:01;;;;;;;3.40;2.93;;;;;25.20;100310.00;;;;2070265;28;20297;-50
2022/06/27 03:07:01;;;;;;;3.10;2.90;;;;;25.20;100323.00;;;;2070831;28;20210;-49
2022/06/27 03:08:02;;;;;;;3.17;2.83;;;;;25.20;100314.00;;;;2070443;28;20743;-49
2022/06/27 03:09:02;;;;;;;2.97;2.77;;;;;25.20;100306.00;;;;2070958;28;20238;-49
2022/06/27 03:10:03;;;;;;;3.13;2.83;;;;;25.20;100305.00;;;;2070776;28;20871;-49
2022/06/27 03:11:03;;;;;;;3.17;2.87;;;;;25.20;100295.00;;;;2070041;28;20237;-50
2022/06/27 03:12:04;;;;;;;3.20;2.90;;;;;25.20;100299.00;;;;2070751;28;20217;-49
2022/06/27 03:13:04;;;;;;;3.30;3.00;;;;;25.20;100293.00;;;;2070903;28;20237;-49
2022/06/27 03:14:04;;;;;;;3.20;2.90;;;;;25.20;100287.00;;;;2070971;28;20228;-49
2022/06/27 03:15:05;;;;;;;4.10;3.40;;;;;25.20;100288.00;;;;2070162;28;20936;-49
2022/06/27 03:16:09;;;;;;;2.80;2.53;;;;;25.20;100290.00;;;;2069895;28;20721;-50
2022/06/27 03:17:09;;;;;;;2.90;2.70;;;;;25.20;100283.00;;;;2069545;28;20477;-50
2022/06/27 03:18:12;;;;;;;3.40;2.80;;;;;25.20;100288.00;;;;2073686;28;20237;-50
2022/06/27 03:19:12;;;;;;;3.50;3.20;;;;;25.20;100288.00;;;;2078715;28;20221;-50
2022/06/27 03:20:12;;;;;;;3.70;3.40;;;;;25.20;100292.00;;;;2078781;28;20201;-51
2022/06/27 03:21:13;;;;;;;4.13;2.50;;;;;25.20;100294.00;;;;2078998;28;20213;-50
2022/06/27 03:22:14;;;;;;;3.40;3.20;;;;;25.20;100308.00;;;;2078988;28;20221;-50
2022/06/27 03:23:15;;;;;;;3.17;2.90;;;;;25.20;100291.00;;;;2078394;28;20820;-50
2022/06/27 03:24:16;;;;;;;3.92;3.53;;;;;25.20;100324.00;;;;2078937;28;20213;-50
2022/06/27 03:25:16;;;;;;;3.30;3.00;;;;;25.20;100298.00;;;;2079103;28;20577;-50
2022/06/27 03:26:17;;;;;;;3.33;3.00;;;;;25.20;100290.00;;;;2078827;28;20205;-49
2022/06/27 03:27:17;;;;;;;3.50;3.20;;;;;25.20;100293.00;;;;2078418;28;20259;-50
2022/06/27 03:28:17;;;;;;;3.53;3.20;;;;;25.20;100293.00;;;;2078677;28;21050;-50
2022/06/27 03:29:18;;;;;;;3.30;3.00;;;;;25.20;100287.00;;;;2079039;28;20317;-50
2022/06/27 03:30:18;;;;;;;4.20;3.40;;;;;25.20;100287.00;;;;2078506;28;20692;-50
2022/06/27 03:31:18;;;;;;;3.07;2.77;;;;;25.20;100288.00;;;;2078795;28;20225;-49
2022/06/27 03:32:19;;;;;;;3.20;2.90;;;;;25.20;100288.00;;;;2078703;28;20217;-50
2022/06/27 03:33:19;;;;;;;3.83;3.43;;;;;25.20;100285.00;;;;2078964;28;20252;-50
2022/06/27 03:34:19;;;;;;;4.50;3.00;;;;;25.20;100282.00;;;;2078600;28;20232;-50
2022/06/27 03:35:20;;;;;;;3.40;3.10;;;;;25.20;100288.00;;;;2078377;28;20210;-50
2022/06/27 03:36:20;;;;;;;3.33;3.03;;;;;25.20;100276.00;;;;2078783;28;20241;-50
2022/06/27 03:37:21;;;;;;;4.20;3.40;;;;;25.20;100291.00;;;;2078394;28;20216;-50
2022/06/27 03:38:21;;;;;;;3.07;2.87;;;;;25.20;100288.00;;;;2078754;28;20214;-50
2022/06/27 03:39:21;;;;;;;3.63;3.33;;;;;25.20;100294.00;;;;2078992;28;20703;-50
2022/06/27 03:40:22;;;;;;;4.10;3.70;;;;;25.20;100309.00;;;;2078639;28;20213;-50
2022/06/27 03:41:22;;;;;;;4.50;3.10;;;;;25.20;100311.00;;;;2078804;28;20213;-50
2022/06/27 03:42:22;;;;;;;3.30;3.00;;;;;25.20;100315.00;;;;2078901;28;20214;-50
2022/06/27 03:43:23;;;;;;;3.63;3.33;;;;;25.20;100326.00;;;;2078749;28;20304;-50
2022/06/27 03:44:23;;;;;;;4.13;3.70;;;;;25.20;100323.00;;;;2078056;28;20271;-50
2022/06/27 03:45:24;;;;;;;3.60;3.30;;;;;25.20;100323.00;;;;2077970;28;20215;-50
2022/06/27 03:46:24;;;;;;;4.57;4.10;;;;;25.20;100330.00;;;;2078400;28;20222;-50
2022/06/27 03:47:24;;;;;;;3.37;3.07;;;;;25.20;100324.00;;;;2078188;28;20584;-50
2022/06/27 03:50:01;;;;;;;3.70;3.40;;;;;25.20;100324.00;;;;2078535;28;20217;-50
2022/06/27 03:51:02;;;;;;;3.53;3.20;;;;;25.20;100317.00;;;;2069224;28;20213;-49
2022/06/27 03:52:03;;;;;;;3.73;3.33;;;;;25.20;100309.00;;;;2070641;28;20214;-49
2022/06/27 03:53:03;;;;;;;3.90;3.50;;;;;25.20;100314.00;;;;2070545;28;20577;-49
2022/06/27 03:54:03;;;;;;;4.00;3.70;;;;;25.20;100315.00;;;;2070603;28;20210;-49
2022/06/27 03:55:04;;;;;;;3.27;3.07;;;;;25.20;100325.00;;;;2070662;28;20214;-50
2022/06/27 03:56:04;;;;;;;4.17;3.77;;;;;25.20;100326.00;;;;2069890;28;20234;-49
2022/06/27 03:57:05;;;;;;;4.50;3.70;;;;;25.20;100344.00;;;;2070008;28;20574;-50
2022/06/27 03:58:06;;;;;;;3.90;3.43;;;;;25.20;100344.00;;;;2069340;28;20252;-49
2022/06/27 03:59:06;;;;;;;3.50;3.20;;;;;25.20;100340.00;;;;2070222;28;20297;-50
2022/06/27 04:00:08;;;;;;;3.30;3.00;;;;;25.20;100335.00;;;;2076835;28;20201;-49
2022/06/27 04:01:08;;;;;;;3.60;3.30;;;;;25.20;100334.00;;;;2078175;28;20219;-49
2022/06/27 04:02:09;;;;;;;4.07;3.60;;;;;25.20;100326.00;;;;2078380;28;20312;-50
2022/06/27 04:03:09;;;;;;;4.30;3.90;;;;;25.20;100333.00;;;;2077876;28;20279;-49
2022/06/27 04:04:10;;;;;;;3.70;3.40;;;;;25.20;100331.00;;;;2078210;28;20309;-49
2022/06/27 04:05:10;;;;;;;3.33;3.03;;;;;25.20;100330.00;;;;2071201;28;20224;-50
2022/06/27 04:06:10;;;;;;;3.80;3.50;;;;;25.20;100330.00;;;;2078072;28;20222;-49
2022/06/27 04:07:11;;;;;;;4.20;3.40;;;;;25.20;100335.00;;;;2078158;28;20216;-49
2022/06/27 04:08:11;;;;;;;3.97;3.30;;;;;25.20;100339.00;;;;2078364;28;20301;-50
2022/06/27 04:09:11;;;;;;;3.60;3.30;;;;;25.20;100330.00;;;;2078784;28;20206;-49
2022/06/27 04:10:12;;;;;;;3.27;3.00;;;;;25.10;100337.00;;;;2073242;28;20662;-49
2022/06/27 04:11:12;;;;;;;3.33;3.03;;;;;25.20;100338.00;;;;2070145;28;20756;-53
2022/06/27 04:12:13;;;;;;;3.67;3.37;;;;;25.10;100343.00;;;;2069367;28;20210;-51
2022/06/27 04:13:13;;;;;;;4.10;3.70;;;;;25.20;100344.00;;;;2069624;28;20210;-50
2022/06/27 04:14:13;;;;;;;3.70;3.40;;;;;25.20;100344.00;;;;2070275;28;20240;-50
2022/06/27 04:15:14;;;;;;;4.10;3.70;;;;;25.20;100347.00;;;;2075522;28;20216;-52
2022/06/27 04:16:14;;;;;;;3.60;3.30;;;;;25.20;100335.00;;;;2077566;28;20229;-52
2022/06/27 04:17:14;;;;;;;5.23;3.40;;;;;25.20;100342.00;;;;2078387;28;20215;-51
2022/06/27 04:18:15;;;;;;;3.67;3.20;;;;;25.20;100339.00;;;;2078325;28;20201;-51
2022/06/27 04:19:15;;;;;;;3.83;3.43;;;;;25.20;100341.00;;;;2078701;28;20233;-50
2022/06/27 04:20:15;;;;;;;3.53;3.23;;;;;25.10;100341.00;;;;2078681;28;20275;-50
2022/06/27 04:21:16;;;;;;;3.87;3.43;;;;;25.20;100346.00;;;;2078185;28;20210;-51
2022/06/27 04:22:16;;;;;;;4.17;3.30;;;;;25.20;100343.00;;;;2077730;28;20381;-50
2022/06/27 04:23:16;;;;;;;3.00;2.80;;;;;25.20;100340.00;;;;2070796;28;20292;-50
2022/06/27 04:24:17;;;;;;;2.93;2.73;;;;;25.20;100335.00;;;;2077926;28;20209;-50
2022/06/27 04:25:17;;;;;;;3.37;3.07;;;;;25.20;100336.00;;;;2079322;28;20295;-50
2022/06/27 04:26:17;;;;;;;5.73;3.80;;;;;25.20;100347.00;;;;2080254;28;20216;-49
2022/06/27 04:27:20;;;;;;;3.57;3.27;;;;;25.20;100341.00;;;;2079812;28;20949;-49
2022/06/27 04:28:20;;;;;;;3.60;3.30;;;;;25.20;100343.00;;;;2080064;28;20705;-49
2022/06/27 04:29:21;;;;;;;3.47;3.17;;;;;25.10;100348.00;;;;2080295;28;20214;-51
2022/06/27 04:30:21;;;;;;;3.13;2.83;;;;;25.20;100347.00;;;;2080433;28;20210;-51
2022/06/27 04:31:21;;;;;;;4.50;4.10;;;;;25.20;100344.00;;;;2079886;28;20593;-51
2022/06/27 04:32:22;;;;;;;4.10;3.30;;;;;25.20;100343.00;;;;2077443;28;20206;-50
2022/06/27 04:33:23;;;;;;;3.00;2.80;;;;;25.20;100348.00;;;;2072278;28;20214;-49
2022/06/27 04:34:24;;;;;;;3.67;3.37;;;;;25.20;100345.00;;;;2071949;28;20627;-50
2022/06/27 04:35:25;;;;;;;3.60;3.30;;;;;25.20;100352.00;;;;2071950;28;20507;-49
2022/06/27 04:36:25;;;;;;;3.70;2.90;;;;;25.20;100349.00;;;;2071679;28;20305;-49
2022/06/27 04:37:26;;;;;;;3.90;3.50;;;;;25.20;100355.00;;;;2071621;28;20292;-49
2022/06/27 04:38:26;;;;;;;4.27;3.60;;;;;25.20;100346.00;;;;2080078;28;20228;-49
2022/06/27 04:39:27;;;;;;;4.83;3.10;;;;;25.10;100358.00;;;;2080287;28;20308;-50
2022/06/27 04:40:27;;;;;;;3.70;3.40;;;;;25.20;100359.00;;;;2080319;28;20313;-49
2022/06/27 04:41:28;;;;;;;3.73;3.30;;;;;25.20;100359.00;;;;2079648;28;20913;-49
2022/06/27 04:42:28;;;;;;;3.60;3.30;;;;;25.20;100367.00;;;;2079957;28;20264;-49
2022/06/27 04:43:29;;;;;;;3.60;3.30;;;;;25.20;100374.00;;;;2080128;28;20221;-49
2022/06/27 04:44:30;;;;;;;4.22;3.20;;;;;25.20;100355.00;;;;2079796;28;20302;-50
2022/06/27 04:45:33;;;;;;;3.73;3.43;;;;;25.20;100352.00;;;;2079251;28;20633;-49
2022/06/27 04:46:33;;;;;;;3.28;2.97;;;;;25.20;100344.00;;;;2080035;28;20213;-49
2022/06/27 04:47:33;;;;;;;3.77;3.47;;;;;25.20;100345.00;;;;2079547;28;20210;-49
2022/06/27 04:48:34;;;;;;;3.90;3.60;;;;;25.20;100347.00;;;;2079747;28;20224;-49
2022/06/27 04:49:35;;;;;;;3.33;3.03;;;;;25.20;100344.00;;;;2080173;28;20236;-50
2022/06/27 04:50:36;;;;;;;5.10;3.40;;;;;25.20;100368.00;;;;2078932;28;20237;-50
2022/06/27 04:51:37;;;;;;;3.65;3.35;;;;;25.20;100343.00;;;;2079349;28;20319;-49
2022/06/27 04:52:38;;;;;;;3.70;3.40;;;;;25.20;100337.00;;;;2079816;28;20701;-50
2022/06/27 04:53:38;;;;;;;3.13;2.83;;;;;25.20;100334.00;;;;2079606;28;20224;-49
2022/06/27 04:54:39;;;;;;;3.80;3.40;;;;;25.10;100341.00;;;;2079586;28;20252;-49
2022/06/27 04:55:39;;;;;;;3.13;2.87;;;;;25.10;100330.00;;;;2079717;28;20315;-49
2022/06/27 04:56:42;;;;;;;3.10;2.80;;;;;25.20;100330.00;;;;2079817;28;20213;-49
2022/06/27 04:57:43;;;;;;;3.45;2.90;;;;;25.20;100333.00;;;;2077752;28;20233;-49
2022/06/27 04:58:43;;;;;;;3.80;3.50;;;;;25.20;100330.00;;;;2079816;28;20723;-49
2022/06/27 04:59:44;;;;;;;4.07;3.63;;;;;25.20;100316.00;;;;2079555;28;20759;-49
2022/06/27 05:00:44;;;;;;;3.43;3.13;;;;;25.20;100322.00;;;;2079768;28;20906;-49
2022/06/27 05:01:45;;;;;;;3.67;3.37;;;;;25.20;100317.00;;;;2079564;28;20235;-49
2022/06/27 05:02:45;;;;;;;3.90;3.50;;;;;25.20;100312.00;;;;2079912;28;20233;-49
2022/06/27 05:03:45;;;;;;;3.10;2.90;;;;;25.20;100335.00;;;;2079972;28;20214;-50